<?xml version='1.0' encoding='UTF-8'?><gpx version="1.1" creator="JPX - https://github.com/jenetics/jpx" xmlns="http://www.topografix.com/GPX/1/1"><trk><trkseg><trkpt lat="39.459153" lon="9.6349768"><ele>114.99999999999999</ele><time>2026-04-30T13:15:20.383Z</time></trkpt><trkpt lat="39.4590729" lon="9.6349782"><ele>115.0</ele><time>2026-04-30T13:17:28.395Z</time></trkpt><trkpt lat="39.4590093" lon="9.6349905"><ele>114.99999999999999</ele><time>2026-04-30T13:17:36.378Z</time></trkpt><trkpt lat="39.4589898" lon="9.6349101"><ele>114.99999999999999</ele><time>2026-04-30T13:18:15.379Z</time></trkpt><trkpt lat="39.4589407" lon="9.6348504"><ele>115.0</ele><time>2026-04-30T13:18:27.385Z</time></trkpt><trkpt lat="39.4589017" lon="9.6347826"><ele>114.99999999999999</ele><time>2026-04-30T13:18:58.3Z</time></trkpt><trkpt lat="39.4589568" lon="9.6348545"><ele>114.99999999999999</ele><time>2026-04-30T13:20:27.327Z</time></trkpt><trkpt lat="39.4589" lon="9.6348174"><ele>114.99999999999999</ele><time>2026-04-30T13:20:40.36Z</time></trkpt><trkpt lat="39.4588671" lon="9.6348927"><ele>115.0</ele><time>2026-04-30T13:21:57.322Z</time></trkpt><trkpt lat="39.4588367" lon="9.6349711"><ele>114.99999999999999</ele><time>2026-04-30T13:22:04.384Z</time></trkpt><trkpt lat="39.458783" lon="9.6350371"><ele>114.99999999999999</ele><time>2026-04-30T13:22:18.398Z</time></trkpt><trkpt lat="39.4587279" lon="9.6349787"><ele>115.0</ele><time>2026-04-30T13:24:08.384Z</time></trkpt><trkpt lat="39.4586879" lon="9.6350453"><ele>114.99999999999999</ele><time>2026-04-30T13:24:41.304Z</time></trkpt><trkpt lat="39.4586609" lon="9.6351248"><ele>114.99999999999999</ele><time>2026-04-30T13:25:48.387Z</time></trkpt><trkpt lat="39.4585654" lon="9.6351442"><ele>114.7142857142857</ele><time>2026-04-30T13:26:30.393Z</time></trkpt><trkpt lat="39.4585013" lon="9.635163"><ele>114.42857142857142</ele><time>2026-04-30T13:26:40.397Z</time></trkpt><trkpt lat="39.4584435" lon="9.6352211"><ele>114.14285714285714</ele><time>2026-04-30T13:26:46.377Z</time></trkpt><trkpt lat="39.4583887" lon="9.6352694"><ele>113.85714285714285</ele><time>2026-04-30T13:27:02.403Z</time></trkpt><trkpt lat="39.4583279" lon="9.6353261"><ele>113.57142857142856</ele><time>2026-04-30T13:27:28.38Z</time></trkpt><trkpt lat="39.4583895" lon="9.6352841"><ele>113.28571428571429</ele><time>2026-04-30T13:27:49.306Z</time></trkpt><trkpt lat="39.4583228" lon="9.6353247"><ele>113.0</ele><time>2026-04-30T13:28:07.419Z</time></trkpt><trkpt lat="39.4582723" lon="9.6353808"><ele>113.0</ele><time>2026-04-30T13:28:13.394Z</time></trkpt><trkpt lat="39.4582154" lon="9.6354312"><ele>113.0</ele><time>2026-04-30T13:28:35.414Z</time></trkpt><trkpt lat="39.4581632" lon="9.6354859"><ele>113.0</ele><time>2026-04-30T13:28:47.374Z</time></trkpt><trkpt lat="39.4581247" lon="9.6355562"><ele>113.0</ele><time>2026-04-30T13:28:55.418Z</time></trkpt><trkpt lat="39.4580724" lon="9.6356078"><ele>113.0</ele><time>2026-04-30T13:29:36.384Z</time></trkpt><trkpt lat="39.4580382" lon="9.6356858"><ele>113.0</ele><time>2026-04-30T13:29:45.327Z</time></trkpt><trkpt lat="39.4579763" lon="9.635662"><ele>113.0</ele><time>2026-04-30T13:30:34.308Z</time></trkpt><trkpt lat="39.4579376" lon="9.635749"><ele>108.71428571428572</ele><time>2026-04-30T13:31:14.347Z</time></trkpt><trkpt lat="39.4579005" lon="9.6358188"><ele>104.42857142857142</ele><time>2026-04-30T13:31:56.334Z</time></trkpt><trkpt lat="39.457835" lon="9.6358294"><ele>100.14285714285714</ele><time>2026-04-30T13:32:19.338Z</time></trkpt><trkpt lat="39.4578117" lon="9.6359056"><ele>95.85714285714286</ele><time>2026-04-30T13:32:35.329Z</time></trkpt><trkpt lat="39.4577952" lon="9.635993"><ele>91.57142857142858</ele><time>2026-04-30T13:33:49.401Z</time></trkpt><trkpt lat="39.4577645" lon="9.6360705"><ele>87.28571428571428</ele><time>2026-04-30T13:34:15.412Z</time></trkpt><trkpt lat="39.457695" lon="9.6360701"><ele>83.0</ele><time>2026-04-30T13:34:44.379Z</time></trkpt><trkpt lat="39.4576323" lon="9.6360824"><ele>83.0</ele><time>2026-04-30T13:35:36.404Z</time></trkpt><trkpt lat="39.4575648" lon="9.6361002"><ele>83.0</ele><time>2026-04-30T13:35:49.36Z</time></trkpt><trkpt lat="39.4575488" lon="9.636183"><ele>83.0</ele><time>2026-04-30T13:36:14.386Z</time></trkpt><trkpt lat="39.457547" lon="9.6362646"><ele>83.0</ele><time>2026-04-30T13:36:21.4Z</time></trkpt><trkpt lat="39.4575386" lon="9.6363589"><ele>83.0</ele><time>2026-04-30T13:37:00.426Z</time></trkpt><trkpt lat="39.457527" lon="9.6364441"><ele>83.0</ele><time>2026-04-30T13:37:05.418Z</time></trkpt><trkpt lat="39.4574609" lon="9.6364463"><ele>83.0</ele><time>2026-04-30T13:39:47.4Z</time></trkpt><trkpt lat="39.4574477" lon="9.6365261"><ele>83.28571428571428</ele><time>2026-04-30T13:40:59.357Z</time></trkpt><trkpt lat="39.4574233" lon="9.6366143"><ele>83.57142857142858</ele><time>2026-04-30T13:41:05.38Z</time></trkpt><trkpt lat="39.4574387" lon="9.6366994"><ele>83.85714285714286</ele><time>2026-04-30T13:41:11.386Z</time></trkpt><trkpt lat="39.4574542" lon="9.6367901"><ele>84.14285714285714</ele><time>2026-04-30T13:41:18.325Z</time></trkpt><trkpt lat="39.4574766" lon="9.6368829"><ele>84.42857142857142</ele><time>2026-04-30T13:41:36.32Z</time></trkpt><trkpt lat="39.4574917" lon="9.6369621"><ele>84.71428571428572</ele><time>2026-04-30T13:41:42.316Z</time></trkpt><trkpt lat="39.4574495" lon="9.6370323"><ele>85.0</ele><time>2026-04-30T13:43:00.42Z</time></trkpt><trkpt lat="39.4574079" lon="9.6370974"><ele>77.0</ele><time>2026-04-30T13:43:05.4Z</time></trkpt><trkpt lat="39.4574106" lon="9.6371843"><ele>77.0</ele><time>2026-04-30T13:43:37.406Z</time></trkpt><trkpt lat="39.4573806" lon="9.6372915"><ele>77.0</ele><time>2026-04-30T13:43:53.385Z</time></trkpt><trkpt lat="39.4573516" lon="9.6373762"><ele>77.0</ele><time>2026-04-30T13:43:59.421Z</time></trkpt><trkpt lat="39.4573032" lon="9.637429"><ele>77.0</ele><time>2026-04-30T13:44:06.362Z</time></trkpt></trkseg></trk></gpx>